sensor_id;sensor_type;location;lat;lon;timestamp;temperature;humidity
70734;DHT22;58320;48.804;9.252;2023-07-31T17:32:46;22.30;53.10
70734;DHT22;58320;48.804;9.252;2023-07-31T17:35:12;22.30;53.10
70734;DHT22;58320;48.804;9.252;2023-07-31T17:37:38;22.40;52.60
70734;DHT22;58320;48.804;9.252;2023-07-31T17:40:04;22.40;52.50
70734;DHT22;58320;48.804;9.252;2023-07-31T17:42:31;22.50;52.50
70734;DHT22;58320;48.804;9.252;2023-07-31T17:44:56;22.50;52.00
70734;DHT22;58320;48.804;9.252;2023-07-31T17:47:22;22.50;52.00
70734;DHT22;58320;48.804;9.252;2023-07-31T17:49:48;22.40;52.20
70734;DHT22;58320;48.804;9.252;2023-07-31T17:52:13;22.40;52.50
70734;DHT22;58320;48.804;9.252;2023-07-31T17:54:39;22.40;52.50
70734;DHT22;58320;48.804;9.252;2023-07-31T17:57:06;22.40;52.60
70734;DHT22;58320;48.804;9.252;2023-07-31T17:59:32;22.40;52.80
70734;DHT22;58320;48.804;9.252;2023-07-31T18:01:57;22.30;52.70
70734;DHT22;58320;48.804;9.252;2023-07-31T18:04:23;22.30;53.00
70734;DHT22;58320;48.804;9.252;2023-07-31T18:06:49;22.30;53.00
70734;DHT22;58320;48.804;9.252;2023-07-31T18:09:14;22.20;53.20
70734;DHT22;58320;48.804;9.252;2023-07-31T18:11:40;22.20;53.30
70734;DHT22;58320;48.804;9.252;2023-07-31T18:14:06;22.20;53.50
70734;DHT22;58320;48.804;9.252;2023-07-31T18:16:31;22.10;53.50
70734;DHT22;58320;48.804;9.252;2023-07-31T18:18:57;22.10;53.60
70734;DHT22;58320;48.804;9.252;2023-07-31T18:21:23;22.10;53.80
70734;DHT22;58320;48.804;9.252;2023-07-31T18:23:49;22.00;54.30
70734;DHT22;58320;48.804;9.252;2023-07-31T18:26:14;21.90;56.70
70734;DHT22;58320;48.804;9.252;2023-07-31T18:28:40;21.80;57.20
70734;DHT22;58320;48.804;9.252;2023-07-31T18:31:06;21.70;57.40
70734;DHT22;58320;48.804;9.252;2023-07-31T18:33:32;21.70;57.20
70734;DHT22;58320;48.804;9.252;2023-07-31T18:35:57;21.60;56.50
70734;DHT22;58320;48.804;9.252;2023-07-31T18:38:24;21.70;56.40
70734;DHT22;58320;48.804;9.252;2023-07-31T18:40:50;21.60;56.40
70734;DHT22;58320;48.804;9.252;2023-07-31T18:43:16;21.60;56.70
70734;DHT22;58320;48.804;9.252;2023-07-31T18:45:41;21.60;57.00
70734;DHT22;58320;48.804;9.252;2023-07-31T18:48:07;21.50;57.60
70734;DHT22;58320;48.804;9.252;2023-07-31T18:50:33;21.50;59.20
70734;DHT22;58320;48.804;9.252;2023-07-31T18:52:59;21.50;60.70
70734;DHT22;58320;48.804;9.252;2023-07-31T18:55:25;21.30;63.10
70734;DHT22;58320;48.804;9.252;2023-07-31T18:57:51;21.20;66.30
70734;DHT22;58320;48.804;9.252;2023-07-31T19:00:16;20.90;68.80
70734;DHT22;58320;48.804;9.252;2023-07-31T19:02:42;20.60;71.80
70734;DHT22;58320;48.804;9.252;2023-07-31T19:05:08;20.30;73.00
70734;DHT22;58320;48.804;9.252;2023-07-31T19:07:34;20.10;74.80
70734;DHT22;58320;48.804;9.252;2023-07-31T19:09:59;19.90;76.80
70734;DHT22;58320;48.804;9.252;2023-07-31T19:12:25;19.70;78.40
70734;DHT22;58320;48.804;9.252;2023-07-31T19:14:51;19.50;81.80
70734;DHT22;58320;48.804;9.252;2023-07-31T19:17:17;19.20;83.00
70734;DHT22;58320;48.804;9.252;2023-07-31T19:19:43;19.00;82.30
70734;DHT22;58320;48.804;9.252;2023-07-31T19:22:08;18.70;84.60
70734;DHT22;58320;48.804;9.252;2023-07-31T19:24:35;18.50;86.50
70734;DHT22;58320;48.804;9.252;2023-07-31T19:27:02;18.20;89.60
70734;DHT22;58320;48.804;9.252;2023-07-31T19:29:28;17.90;90.90
70734;DHT22;58320;48.804;9.252;2023-07-31T19:31:54;17.70;91.80
70734;DHT22;58320;48.804;9.252;2023-07-31T19:34:21;17.60;95.20
70734;DHT22;58320;48.804;9.252;2023-07-31T19:36:47;17.50;95.60
70734;DHT22;58320;48.804;9.252;2023-07-31T19:39:13;17.50;96.20
70734;DHT22;58320;48.804;9.252;2023-07-31T19:41:39;17.50;95.80
70734;DHT22;58320;48.804;9.252;2023-07-31T19:44:07;17.40;96.30
70734;DHT22;58320;48.804;9.252;2023-07-31T19:46:33;17.40;96.50
70734;DHT22;58320;48.804;9.252;2023-07-31T19:49:00;17.30;97.20
70734;DHT22;58320;48.804;9.252;2023-07-31T19:51:26;17.20;98.00
70734;DHT22;58320;48.804;9.252;2023-07-31T19:53:52;17.30;99.00
70734;DHT22;58320;48.804;9.252;2023-07-31T19:56:17;17.30;99.40
70734;DHT22;58320;48.804;9.252;2023-07-31T19:58:43;17.20;99.50
70734;DHT22;58320;48.804;9.252;2023-07-31T20:01:09;17.20;99.90
70734;DHT22;58320;48.804;9.252;2023-07-31T20:03:35;17.10;99.90
70734;DHT22;58320;48.804;9.252;2023-07-31T20:06:01;17.10;99.90
70734;DHT22;58320;48.804;9.252;2023-07-31T20:08:27;17.10;99.90
70734;DHT22;58320;48.804;9.252;2023-07-31T20:10:53;17.20;99.90
70734;DHT22;58320;48.804;9.252;2023-07-31T20:13:19;17.10;99.90
70734;DHT22;58320;48.804;9.252;2023-07-31T20:15:45;17.10;99.90
70734;DHT22;58320;48.804;9.252;2023-07-31T20:18:10;17.00;99.90
70734;DHT22;58320;48.804;9.252;2023-07-31T20:20:36;17.00;99.90
70734;DHT22;58320;48.804;9.252;2023-07-31T20:23:02;16.90;99.90
70734;DHT22;58320;48.804;9.252;2023-07-31T20:25:28;16.90;99.90
70734;DHT22;58320;48.804;9.252;2023-07-31T20:27:53;16.90;99.90
70734;DHT22;58320;48.804;9.252;2023-07-31T20:30:19;16.90;99.90
70734;DHT22;58320;48.804;9.252;2023-07-31T20:32:45;17.00;99.90
70734;DHT22;58320;48.804;9.252;2023-07-31T20:35:11;17.00;99.90
70734;DHT22;58320;48.804;9.252;2023-07-31T20:37:36;17.10;99.90
70734;DHT22;58320;48.804;9.252;2023-07-31T20:40:06;17.10;99.90
70734;DHT22;58320;48.804;9.252;2023-07-31T20:42:32;17.10;99.90
70734;DHT22;58320;48.804;9.252;2023-07-31T20:44:57;17.10;99.90
70734;DHT22;58320;48.804;9.252;2023-07-31T20:47:23;17.10;99.90
70734;DHT22;58320;48.804;9.252;2023-07-31T20:49:49;17.10;99.90
70734;DHT22;58320;48.804;9.252;2023-07-31T20:52:15;17.10;99.90
70734;DHT22;58320;48.804;9.252;2023-07-31T20:54:40;17.00;99.90
70734;DHT22;58320;48.804;9.252;2023-07-31T20:57:06;17.00;99.90
70734;DHT22;58320;48.804;9.252;2023-07-31T20:59:32;17.00;99.90
70734;DHT22;58320;48.804;9.252;2023-07-31T21:01:58;17.00;99.90
70734;DHT22;58320;48.804;9.252;2023-07-31T21:04:23;17.00;99.90
70734;DHT22;58320;48.804;9.252;2023-07-31T21:06:49;17.00;99.90
70734;DHT22;58320;48.804;9.252;2023-07-31T21:09:15;17.10;99.90
70734;DHT22;58320;48.804;9.252;2023-07-31T21:11:41;17.00;99.90
70734;DHT22;58320;48.804;9.252;2023-07-31T21:14:06;17.10;99.90
70734;DHT22;58320;48.804;9.252;2023-07-31T21:16:32;17.10;99.90
70734;DHT22;58320;48.804;9.252;2023-07-31T21:18:58;17.00;99.90
70734;DHT22;58320;48.804;9.252;2023-07-31T21:21:24;17.00;99.90
70734;DHT22;58320;48.804;9.252;2023-07-31T21:23:49;17.00;99.90
70734;DHT22;58320;48.804;9.252;2023-07-31T21:26:15;17.00;99.90
70734;DHT22;58320;48.804;9.252;2023-07-31T21:28:41;17.00;99.90
70734;DHT22;58320;48.804;9.252;2023-07-31T21:31:13;17.00;99.90
70734;DHT22;58320;48.804;9.252;2023-07-31T21:33:41;17.00;99.90
70734;DHT22;58320;48.804;9.252;2023-07-31T21:36:07;17.10;98.60
70734;DHT22;58320;48.804;9.252;2023-07-31T21:38:32;17.20;96.70
70734;DHT22;58320;48.804;9.252;2023-07-31T21:40:59;17.20;96.20
70734;DHT22;58320;48.804;9.252;2023-07-31T21:43:25;17.20;95.60
70734;DHT22;58320;48.804;9.252;2023-07-31T21:45:51;17.20;94.90
70734;DHT22;58320;48.804;9.252;2023-07-31T21:48:16;17.20;95.30
70734;DHT22;58320;48.804;9.252;2023-07-31T21:50:43;17.20;95.40
70734;DHT22;58320;48.804;9.252;2023-07-31T21:53:09;17.20;95.50
70734;DHT22;58320;48.804;9.252;2023-07-31T21:55:35;17.20;96.20
70734;DHT22;58320;48.804;9.252;2023-07-31T21:58:01;17.30;95.90
70734;DHT22;58320;48.804;9.252;2023-07-31T22:00:27;17.30;95.90
70734;DHT22;58320;48.804;9.252;2023-07-31T22:02:53;17.30;96.10
70734;DHT22;58320;48.804;9.252;2023-07-31T22:05:18;17.30;95.00
70734;DHT22;58320;48.804;9.252;2023-07-31T22:07:44;17.30;95.40
70734;DHT22;58320;48.804;9.252;2023-07-31T22:10:10;17.30;95.20
70734;DHT22;58320;48.804;9.252;2023-07-31T22:12:36;17.30;94.60
70734;DHT22;58320;48.804;9.252;2023-07-31T22:15:02;17.30;95.30
70734;DHT22;58320;48.804;9.252;2023-07-31T22:17:28;17.30;95.40
70734;DHT22;58320;48.804;9.252;2023-07-31T22:19:53;17.30;95.70
70734;DHT22;58320;48.804;9.252;2023-07-31T22:22:19;17.30;95.90
70734;DHT22;58320;48.804;9.252;2023-07-31T22:24:45;17.30;95.60
70734;DHT22;58320;48.804;9.252;2023-07-31T22:27:14;17.30;96.00
70734;DHT22;58320;48.804;9.252;2023-07-31T22:29:41;17.30;96.50
70734;DHT22;58320;48.804;9.252;2023-07-31T22:32:07;17.30;96.20
70734;DHT22;58320;48.804;9.252;2023-07-31T22:34:33;17.30;96.50
70734;DHT22;58320;48.804;9.252;2023-07-31T22:36:59;17.30;97.20
70734;DHT22;58320;48.804;9.252;2023-07-31T22:39:25;17.30;97.40
70734;DHT22;58320;48.804;9.252;2023-07-31T22:41:50;17.30;97.60
70734;DHT22;58320;48.804;9.252;2023-07-31T22:44:16;17.30;97.60
70734;DHT22;58320;48.804;9.252;2023-07-31T22:46:42;17.30;98.20
70734;DHT22;58320;48.804;9.252;2023-07-31T22:49:07;17.30;98.10
70734;DHT22;58320;48.804;9.252;2023-07-31T22:51:33;17.30;98.50
70734;DHT22;58320;48.804;9.252;2023-07-31T22:53:59;17.30;98.00
70734;DHT22;58320;48.804;9.252;2023-07-31T22:56:25;17.30;97.90
70734;DHT22;58320;48.804;9.252;2023-07-31T22:58:50;17.30;97.90
70734;DHT22;58320;48.804;9.252;2023-07-31T23:01:16;17.30;97.00
70734;DHT22;58320;48.804;9.252;2023-07-31T23:03:46;17.30;96.20
70734;DHT22;58320;48.804;9.252;2023-07-31T23:06:13;17.40;96.10
70734;DHT22;58320;48.804;9.252;2023-07-31T23:08:40;17.40;94.90
70734;DHT22;58320;48.804;9.252;2023-07-31T23:11:05;17.40;91.30
70734;DHT22;58320;48.804;9.252;2023-07-31T23:13:32;17.60;90.10
70734;DHT22;58320;48.804;9.252;2023-07-31T23:15:58;17.70;87.60
70734;DHT22;58320;48.804;9.252;2023-07-31T23:18:24;17.90;83.40
70734;DHT22;58320;48.804;9.252;2023-07-31T23:20:51;18.00;84.00
70734;DHT22;58320;48.804;9.252;2023-07-31T23:23:18;17.90;84.10
70734;DHT22;58320;48.804;9.252;2023-07-31T23:25:47;17.90;85.70
70734;DHT22;58320;48.804;9.252;2023-07-31T23:28:13;17.90;86.60
70734;DHT22;58320;48.804;9.252;2023-07-31T23:30:39;17.80;86.60
70734;DHT22;58320;48.804;9.252;2023-07-31T23:33:06;17.80;86.80
70734;DHT22;58320;48.804;9.252;2023-07-31T23:35:31;17.70;87.20
70734;DHT22;58320;48.804;9.252;2023-07-31T23:37:57;17.80;86.80
70734;DHT22;58320;48.804;9.252;2023-07-31T23:40:25;17.70;88.10
70734;DHT22;58320;48.804;9.252;2023-07-31T23:42:51;17.70;88.70
70734;DHT22;58320;48.804;9.252;2023-07-31T23:45:17;17.70;87.20
70734;DHT22;58320;48.804;9.252;2023-07-31T23:47:42;17.70;86.70
70734;DHT22;58320;48.804;9.252;2023-07-31T23:50:08;17.80;86.10
70734;DHT22;58320;48.804;9.252;2023-07-31T23:52:37;17.80;83.90
70734;DHT22;58320;48.804;9.252;2023-07-31T23:55:04;17.80;84.10
70734;DHT22;58320;48.804;9.252;2023-07-31T23:57:31;17.80;85.00
70734;DHT22;58320;48.804;9.252;2023-07-31T23:59:57;17.70;85.40
